createdAt,value
2022-11-05T00:01:20.309Z,98262.41
2022-11-05T00:03:46.492Z,98267.69
2022-11-05T00:06:12.671Z,98263.56
2022-11-05T00:08:38.801Z,98264.56
2022-11-05T00:11:04.907Z,98266.38
2022-11-05T00:13:30.993Z,98272.63
2022-11-05T00:15:57.092Z,98273.97
2022-11-05T00:18:23.200Z,98267.88
2022-11-05T00:20:49.286Z,98279.09
2022-11-05T00:23:15.376Z,98281.72
2022-11-05T00:25:41.478Z,98278.28
2022-11-05T00:28:07.566Z,98284.88
2022-11-05T00:30:33.855Z,98286.22
2022-11-05T00:32:59.975Z,98286.53
2022-11-05T00:35:26.073Z,98292.31
2022-11-05T00:37:52.178Z,98289.84
2022-11-05T00:40:18.324Z,98296.78
2022-11-05T00:42:44.503Z,98299.75
2022-11-05T00:45:10.597Z,98286.53
2022-11-05T00:47:36.700Z,98290.84
2022-11-05T00:50:02.831Z,98300.91
2022-11-05T00:52:28.935Z,98296.59
2022-11-05T00:54:55.043Z,98297.75
2022-11-05T00:57:21.139Z,98295.91
2022-11-05T00:59:47.236Z,98300.72
2022-11-05T01:02:13.505Z,98299.22
2022-11-05T01:04:39.681Z,98306.00
2022-11-05T01:07:05.780Z,98313.56
2022-11-05T01:09:32.177Z,98313.88
2022-11-05T01:11:58.262Z,98313.06
2022-11-05T01:14:24.363Z,98325.91
2022-11-05T01:16:50.476Z,98326.28
2022-11-05T01:19:16.560Z,98331.22
2022-11-05T01:21:42.643Z,98332.34
2022-11-05T01:24:08.770Z,98326.50
2022-11-05T01:26:34.860Z,98334.44
2022-11-05T01:29:01.001Z,98338.28
2022-11-05T01:31:27.191Z,98337.59
2022-11-05T01:33:53.276Z,98335.09
2022-11-05T01:36:19.376Z,98329.91
2022-11-05T01:38:45.484Z,98335.69
2022-11-05T01:41:11.594Z,98329.22
2022-11-05T01:43:37.680Z,98340.50
2022-11-05T01:46:03.830Z,98343.78
2022-11-05T01:48:29.923Z,98339.63
2022-11-05T01:50:56.024Z,98347.84
2022-11-05T01:53:22.143Z,98343.09
2022-11-05T01:55:48.239Z,98347.50
2022-11-05T01:58:14.323Z,98348.31
2022-11-05T02:00:40.461Z,98353.78
2022-11-05T02:03:06.613Z,98370.09
2022-11-05T02:05:32.740Z,98361.16
2022-11-05T02:07:58.858Z,98358.53
2022-11-05T02:10:24.947Z,98361.38
2022-11-05T02:12:51.033Z,98367.41
2022-11-05T02:15:17.150Z,98367.91
2022-11-05T02:17:43.251Z,98369.09
2022-11-05T02:20:09.344Z,98368.53
2022-11-05T02:22:35.464Z,98368.03
2022-11-05T02:25:01.571Z,98366.00
2022-11-05T02:27:27.656Z,98372.25
2022-11-05T02:29:53.772Z,98371.22
2022-11-05T02:32:19.864Z,98374.63
2022-11-05T02:34:45.977Z,98372.88
2022-11-05T02:37:12.098Z,98368.03
2022-11-05T02:39:38.200Z,98377.13
2022-11-05T02:42:05.300Z,98386.50
2022-11-05T02:44:31.559Z,98382.41
2022-11-05T02:46:57.642Z,98379.84
2022-11-05T02:49:23.720Z,98385.88
2022-11-05T02:51:49.873Z,98383.25
2022-11-05T02:54:15.972Z,98380.44
2022-11-05T02:56:42.056Z,98386.88
2022-11-05T02:59:08.226Z,98380.84
2022-11-05T03:01:34.422Z,98383.50
2022-11-05T03:04:00.580Z,98380.88
2022-11-05T03:06:26.695Z,98376.72
2022-11-05T03:08:52.792Z,98385.28
2022-11-05T03:11:18.875Z,98389.47
2022-11-05T03:13:44.971Z,98393.50
2022-11-05T03:16:11.095Z,98393.34
2022-11-05T03:18:37.199Z,98389.34
2022-11-05T03:21:03.361Z,98396.78
2022-11-05T03:23:29.468Z,98399.34
2022-11-05T03:25:55.567Z,98405.28
2022-11-05T03:28:21.668Z,98398.97
2022-11-05T03:30:47.766Z,98395.81
2022-11-05T03:33:14.046Z,98405.91
2022-11-05T03:35:40.250Z,98403.47
2022-11-05T03:38:06.342Z,98415.84
2022-11-05T03:40:32.488Z,98408.41
2022-11-05T03:42:58.620Z,98414.81
2022-11-05T03:45:24.724Z,98407.72
2022-11-05T03:47:50.837Z,98410.03
2022-11-05T03:50:16.983Z,98417.91
2022-11-05T03:52:43.077Z,98419.56
2022-11-05T03:55:09.164Z,98418.38
2022-11-05T03:57:35.260Z,98423.81
2022-11-05T04:00:01.357Z,98418.56
2022-11-05T04:02:27.619Z,98421.75
2022-11-05T04:04:53.791Z,98426.34
2022-11-05T04:07:19.937Z,98424.03
2022-11-05T04:09:46.023Z,98424.16
2022-11-05T04:12:12.143Z,98429.63
2022-11-05T04:14:38.219Z,98430.59
2022-11-05T04:17:04.307Z,98429.63
2022-11-05T04:19:30.419Z,98433.41
2022-11-05T04:21:56.523Z,98424.16
2022-11-05T04:24:22.610Z,98432.72
2022-11-05T04:26:48.716Z,98421.25
2022-11-05T04:29:14.809Z,98429.78
2022-11-05T04:31:40.903Z,98432.59
2022-11-05T04:34:07.015Z,98421.88
2022-11-05T04:36:33.101Z,98432.59
2022-11-05T04:38:59.184Z,98424.78
2022-11-05T04:41:25.316Z,98428.59
2022-11-05T04:43:51.413Z,98426.94
2022-11-05T04:46:17.552Z,98430.72
2022-11-05T04:48:43.661Z,98433.28
2022-11-05T04:51:09.753Z,98435.91
2022-11-05T04:53:35.841Z,98442.31
2022-11-05T04:56:02.001Z,98436.38
2022-11-05T04:58:28.660Z,98440.81
2022-11-05T05:00:54.794Z,98442.63
2022-11-05T05:03:20.948Z,98440.50
2022-11-05T05:05:47.046Z,98437.22
2022-11-05T05:08:13.142Z,98441.97
2022-11-05T05:10:39.258Z,98447.22
2022-11-05T05:13:05.360Z,98444.72
2022-11-05T05:15:31.463Z,98448.38
2022-11-05T05:17:57.571Z,98446.72
2022-11-05T05:20:23.668Z,98446.03
2022-11-05T05:22:49.762Z,98439.78
2022-11-05T05:25:16.077Z,98448.50
2022-11-05T05:27:42.176Z,98452.13
2022-11-05T05:30:08.274Z,98456.94
2022-11-05T05:32:34.384Z,98457.25
2022-11-05T05:35:00.482Z,98461.31
2022-11-05T05:37:26.595Z,98462.97
2022-11-05T05:39:52.718Z,98472.63
2022-11-05T05:42:18.808Z,98465.97
2022-11-05T05:44:44.901Z,98475.25
2022-11-05T05:47:11.017Z,98471.00
2022-11-05T05:49:37.124Z,98477.47
2022-11-05T05:52:03.211Z,98479.72
2022-11-05T05:54:33.454Z,98478.41
2022-11-05T05:57:00.341Z,98483.41
2022-11-05T05:59:26.432Z,98483.47
2022-11-05T06:01:52.649Z,98488.44
2022-11-05T06:04:18.806Z,98495.22
2022-11-05T06:06:44.910Z,98489.81
2022-11-05T06:09:11.020Z,98498.03
2022-11-05T06:11:37.113Z,98498.28
2022-11-05T06:14:03.192Z,98502.88
2022-11-05T06:16:29.321Z,98505.50
2022-11-05T06:18:55.488Z,98502.34
2022-11-05T06:21:21.577Z,98505.06
2022-11-05T06:23:47.673Z,98505.50
2022-11-05T06:26:13.776Z,98500.91
2022-11-05T06:28:39.880Z,98499.41
2022-11-05T06:31:06.477Z,98508.81
2022-11-05T06:33:32.559Z,98508.31
2022-11-05T06:35:58.645Z,98514.84
2022-11-05T06:38:24.748Z,98507.25
2022-11-05T06:40:50.853Z,98513.19
2022-11-05T06:43:16.954Z,98521.09
2022-11-05T06:45:43.080Z,98525.13
2022-11-05T06:48:09.163Z,98521.78
2022-11-05T06:50:35.254Z,98529.56
2022-11-05T06:53:01.472Z,98538.00
2022-11-05T06:55:27.564Z,98541.91
2022-11-05T06:57:56.625Z,98546.88
2022-11-05T07:00:22.810Z,98547.28
2022-11-05T07:02:48.931Z,98544.38
2022-11-05T07:05:15.026Z,98550.91
2022-11-05T07:07:41.145Z,98547.28
2022-11-05T07:10:07.232Z,98554.47
2022-11-05T07:12:33.319Z,98556.69
2022-11-05T07:15:08.759Z,98556.94
2022-11-05T07:17:37.557Z,98558.06
2022-11-05T07:20:03.668Z,98567.09
2022-11-05T07:22:30.186Z,98569.31
2022-11-05T07:24:56.314Z,98567.09
2022-11-05T07:27:22.440Z,98570.47
2022-11-05T07:29:49.812Z,98573.06
2022-11-05T07:32:15.926Z,98569.00
2022-11-05T07:34:42.077Z,98570.84
2022-11-05T07:37:08.780Z,98578.84
2022-11-05T07:39:34.913Z,98579.41
2022-11-05T07:42:08.809Z,98581.66
2022-11-05T07:44:34.944Z,98587.31
2022-11-05T07:47:01.032Z,98580.66
2022-11-05T07:49:27.153Z,98596.47
2022-11-05T07:51:53.432Z,98602.03
2022-11-05T07:54:19.537Z,98592.72
2022-11-05T07:56:45.683Z,98595.63
2022-11-05T07:59:11.818Z,98589.78
2022-11-05T08:01:38.150Z,98594.38
2022-11-05T08:04:07.274Z,98600.59
2022-11-05T08:06:33.368Z,98605.31
2022-11-05T08:08:59.476Z,98606.81
2022-11-05T08:11:25.899Z,98608.63
2022-11-05T08:13:52.007Z,98606.81
2022-11-05T08:16:18.097Z,98608.88
2022-11-05T08:18:44.204Z,98609.00
2022-11-05T08:21:10.286Z,98616.34
2022-11-05T08:23:36.380Z,98610.09
2022-11-05T08:26:02.503Z,98620.03
2022-11-05T08:28:30.791Z,98608.69
2022-11-05T08:30:56.909Z,98614.09
2022-11-05T08:33:23.007Z,98616.16
2022-11-05T08:35:49.091Z,98615.47
2022-11-05T08:38:15.184Z,98620.13
2022-11-05T08:40:41.341Z,98630.63
2022-11-05T08:43:07.451Z,98626.53
2022-11-05T08:45:33.554Z,98628.66
2022-11-05T08:47:59.674Z,98629.94
2022-11-05T08:50:25.891Z,98637.78
2022-11-05T08:52:52.032Z,98637.94
2022-11-05T08:55:18.174Z,98647.06
2022-11-05T08:57:44.280Z,98643.00
2022-11-05T09:00:10.380Z,98641.81
2022-11-05T09:02:36.597Z,98641.13
2022-11-05T09:05:02.752Z,98641.38
2022-11-05T09:07:28.867Z,98643.56
2022-11-05T09:09:55.055Z,98633.38
2022-11-05T09:12:21.165Z,98639.13
2022-11-05T09:14:47.308Z,98634.00
2022-11-05T09:17:13.463Z,98641.31
2022-11-05T09:19:40.251Z,98643.97
2022-11-05T09:22:06.522Z,98640.47
2022-11-05T09:24:32.874Z,98645.94
2022-11-05T09:26:58.967Z,98649.66
2022-11-05T09:29:25.091Z,98637.78
2022-11-05T09:31:51.291Z,98648.13
2022-11-05T09:34:18.981Z,98647.91
2022-11-05T09:36:45.264Z,98649.13
2022-11-05T09:39:11.732Z,98645.19
2022-11-05T09:41:38.006Z,98642.72
2022-11-05T09:44:04.115Z,98654.38
2022-11-05T09:46:30.263Z,98654.59
2022-11-05T09:48:59.645Z,98644.41
2022-11-05T09:51:25.993Z,98656.03
2022-11-05T09:53:53.358Z,98652.59
2022-11-05T09:56:19.517Z,98658.56
2022-11-05T09:58:45.741Z,98659.03
2022-11-05T10:01:11.970Z,98660.41
2022-11-05T10:03:38.161Z,98664.34
2022-11-05T10:06:04.254Z,98676.91
2022-11-05T10:08:30.366Z,98670.88
2022-11-05T10:10:56.469Z,98673.66
2022-11-05T10:13:22.577Z,98677.19
2022-11-05T10:15:48.753Z,98674.13
2022-11-05T10:18:14.845Z,98677.22
2022-11-05T10:20:40.939Z,98677.75
2022-11-05T10:23:07.059Z,98669.28
2022-11-05T10:25:33.144Z,98682.50
2022-11-05T10:27:59.234Z,98684.72
2022-11-05T10:30:25.351Z,98680.41
2022-11-05T10:32:51.445Z,98675.47
2022-11-05T10:35:17.540Z,98682.28
2022-11-05T10:37:43.944Z,98676.72
2022-11-05T10:40:10.067Z,98683.84
2022-11-05T10:42:36.173Z,98688.81
2022-11-05T10:45:02.293Z,98690.50
2022-11-05T10:47:28.391Z,98688.88
2022-11-05T10:49:54.494Z,98687.41
2022-11-05T10:52:20.602Z,98693.94
2022-11-05T10:54:46.698Z,98692.06
2022-11-05T10:57:14.620Z,98693.22
2022-11-05T10:59:40.725Z,98689.81
2022-11-05T11:02:06.928Z,98689.69
2022-11-05T11:04:37.690Z,98689.03
2022-11-05T11:07:04.280Z,98687.38
2022-11-05T11:09:30.385Z,98689.97
2022-11-05T11:11:56.487Z,98699.78
2022-11-05T11:14:22.614Z,98693.97
2022-11-05T11:16:48.706Z,98685.16
2022-11-05T11:19:14.787Z,98682.56
2022-11-05T11:21:40.933Z,98682.91
2022-11-05T11:24:07.055Z,98703.78
2022-11-05T11:26:33.155Z,98698.94
2022-11-05T11:28:59.279Z,98691.34
2022-11-05T11:31:25.384Z,98684.06
2022-11-05T11:33:51.471Z,98691.31
2022-11-05T11:36:17.571Z,98693.59
2022-11-05T11:38:43.674Z,98691.63
2022-11-05T11:41:09.764Z,98696.56
2022-11-05T11:43:35.882Z,98694.97
2022-11-05T11:46:06.110Z,98693.41
2022-11-05T11:48:33.960Z,98703.41
2022-11-05T11:51:00.064Z,98698.31
2022-11-05T11:53:26.147Z,98707.50
2022-11-05T11:55:52.260Z,98702.53
2022-11-05T11:58:18.374Z,98702.94
2022-11-05T12:00:44.469Z,98703.41
2022-11-05T12:03:10.634Z,98703.41
2022-11-05T12:05:36.810Z,98694.66
2022-11-05T12:08:02.915Z,98700.47
2022-11-05T12:10:29.014Z,98694.81
2022-11-05T12:12:55.132Z,98697.66
2022-11-05T12:15:21.210Z,98695.66
2022-11-05T12:17:47.292Z,98695.00
2022-11-05T12:20:13.462Z,98695.97
2022-11-05T12:22:39.628Z,98693.00
2022-11-05T12:25:05.736Z,98693.03
2022-11-05T12:27:31.849Z,98683.09
2022-11-05T12:29:57.937Z,98687.03
2022-11-05T12:32:24.088Z,98687.38
2022-11-05T12:34:50.320Z,98676.44
2022-11-05T12:37:16.413Z,98684.88
2022-11-05T12:39:42.512Z,98680.59
2022-11-05T12:42:08.905Z,98671.13
2022-11-05T12:44:35.018Z,98681.41
2022-11-05T12:47:01.116Z,98676.44
2022-11-05T12:49:27.224Z,98680.44
2022-11-05T12:51:53.311Z,98673.81
2022-11-05T12:54:19.412Z,98665.84
2022-11-05T12:56:45.507Z,98664.84
2022-11-05T12:59:11.594Z,98668.50
2022-11-05T13:01:37.771Z,98666.00
2022-11-05T13:04:03.957Z,98670.81
2022-11-05T13:06:30.056Z,98655.72
2022-11-05T13:08:56.150Z,98660.38
2022-11-05T13:11:22.272Z,98658.56
2022-11-05T13:13:48.361Z,98654.75
2022-11-05T13:16:14.487Z,98661.53
2022-11-05T13:18:40.585Z,98657.22
2022-11-05T13:21:06.668Z,98650.09
2022-11-05T13:23:32.750Z,98633.03
2022-11-05T13:25:58.946Z,98642.47
2022-11-05T13:28:25.040Z,98647.13
2022-11-05T13:30:51.123Z,98649.59
2022-11-05T13:33:17.256Z,98642.63
2022-11-05T13:35:43.339Z,98641.47
2022-11-05T13:38:09.430Z,98639.47
2022-11-05T13:40:35.543Z,98631.53
2022-11-05T13:43:01.658Z,98639.00
2022-11-05T13:45:27.754Z,98639.81
2022-11-05T13:47:53.855Z,98634.53
2022-11-05T13:50:19.957Z,98634.69
2022-11-05T13:52:46.050Z,98634.03
2022-11-05T13:55:12.382Z,98644.13
2022-11-05T13:57:38.525Z,98642.66
2022-11-05T14:00:04.615Z,98644.47
2022-11-05T14:02:30.861Z,98637.53
2022-11-05T14:05:01.063Z,98638.00
2022-11-05T14:07:27.771Z,98640.66
2022-11-05T14:09:53.884Z,98637.50
2022-11-05T14:12:19.983Z,98645.63
2022-11-05T14:14:46.067Z,98639.16
2022-11-05T14:17:12.178Z,98630.41
2022-11-05T14:19:38.279Z,98631.69
2022-11-05T14:22:04.377Z,98625.41
2022-11-05T14:24:30.564Z,98617.44
2022-11-05T14:26:56.656Z,98625.41
2022-11-05T14:29:22.751Z,98615.50
2022-11-05T14:32:07.905Z,98621.13
2022-11-05T14:34:34.703Z,98624.44
2022-11-05T14:37:00.861Z,98618.44
2022-11-05T14:39:26.962Z,98611.94
2022-11-05T14:41:53.056Z,98611.97
2022-11-05T14:44:19.169Z,98623.88
2022-11-05T14:46:45.268Z,98619.53
2022-11-05T14:49:11.357Z,98611.78
2022-11-05T14:51:37.828Z,98613.09
2022-11-05T14:54:03.973Z,98623.84
2022-11-05T14:56:30.076Z,98623.84
2022-11-05T14:58:56.193Z,98611.41
2022-11-05T15:01:22.401Z,98609.78
2022-11-05T15:03:48.723Z,98600.84
2022-11-05T15:06:14.891Z,98595.38
2022-11-05T15:08:40.999Z,98595.34
2022-11-05T15:11:07.096Z,98589.06
2022-11-05T15:13:33.210Z,98588.94
2022-11-05T15:15:59.336Z,98589.94
2022-11-05T15:18:25.434Z,98581.13
2022-11-05T15:20:51.549Z,98582.63
2022-11-05T15:23:17.645Z,98588.22
2022-11-05T15:25:45.830Z,98595.34
2022-11-05T15:28:15.088Z,98598.00
2022-11-05T15:30:41.175Z,98612.66
2022-11-05T15:33:07.281Z,98607.72
2022-11-05T15:35:33.395Z,98612.53
2022-11-05T15:38:02.494Z,98605.91
2022-11-05T15:40:28.864Z,98606.06
2022-11-05T15:42:55.481Z,98609.88
2022-11-05T15:45:21.588Z,98600.28
2022-11-05T15:47:47.679Z,98599.09
2022-11-05T15:50:15.034Z,98596.44
2022-11-05T15:52:41.428Z,98601.38
2022-11-05T15:55:07.513Z,98603.34
2022-11-05T15:57:34.549Z,98605.66
2022-11-05T16:00:02.994Z,98610.88
2022-11-05T16:02:29.353Z,98613.38
2022-11-05T16:04:55.575Z,98612.72
2022-11-05T16:07:21.665Z,98622.41
2022-11-05T16:09:47.759Z,98609.84
2022-11-05T16:12:13.904Z,98618.81
2022-11-05T16:14:39.991Z,98605.50
2022-11-05T16:17:06.086Z,98613.81
2022-11-05T16:19:37.014Z,98619.59
2022-11-05T16:22:05.856Z,98618.44
2022-11-05T16:24:31.943Z,98607.66
2022-11-05T16:27:02.716Z,98612.47
2022-11-05T16:29:29.273Z,98619.38
2022-11-05T16:31:55.368Z,98606.31
2022-11-05T16:34:21.481Z,98607.22
2022-11-05T16:36:47.577Z,98604.47
2022-11-05T16:39:13.673Z,98599.50
2022-11-05T16:41:40.088Z,98599.00
2022-11-05T16:44:06.183Z,98602.94
2022-11-05T16:46:32.328Z,98601.47
2022-11-05T16:48:58.443Z,98590.41
2022-11-05T16:51:27.341Z,98602.28
2022-11-05T16:53:53.713Z,98602.91
2022-11-05T16:56:19.863Z,98606.59
2022-11-05T16:58:45.956Z,98601.59
2022-11-05T17:01:12.111Z,98601.81
2022-11-05T17:03:38.257Z,98593.97
2022-11-05T17:06:04.402Z,98600.09
2022-11-05T17:08:30.490Z,98603.19
2022-11-05T17:10:56.606Z,98603.38
2022-11-05T17:13:22.710Z,98600.06
2022-11-05T17:15:48.820Z,98606.53
2022-11-05T17:18:18.611Z,98604.16
2022-11-05T17:20:45.355Z,98596.38
2022-11-05T17:23:11.893Z,98605.66
2022-11-05T17:25:38.318Z,98605.13
2022-11-05T17:28:04.419Z,98609.44
2022-11-05T17:30:30.527Z,98599.16
2022-11-05T17:32:56.688Z,98608.41
2022-11-05T17:35:22.828Z,98604.31
2022-11-05T17:37:48.911Z,98609.59
2022-11-05T17:40:15.011Z,98610.41
2022-11-05T17:42:41.104Z,98605.91
2022-11-05T17:45:07.194Z,98606.22
2022-11-05T17:47:33.311Z,98605.09
2022-11-05T17:49:59.418Z,98603.78
2022-11-05T17:52:25.529Z,98607.41
2022-11-05T17:54:52.140Z,98595.34
2022-11-05T17:57:18.236Z,98600.25
2022-11-05T17:59:44.339Z,98605.22
2022-11-05T18:02:10.585Z,98588.38
2022-11-05T18:04:36.755Z,98598.34
2022-11-05T18:07:02.852Z,98595.47
2022-11-05T18:09:28.973Z,98592.34
2022-11-05T18:11:55.069Z,98590.84
2022-11-05T18:14:23.999Z,98599.72
2022-11-05T18:16:50.405Z,98597.63
2022-11-05T18:19:16.502Z,98595.94
2022-11-05T18:21:42.580Z,98599.44
2022-11-05T18:24:08.683Z,98596.41
2022-11-05T18:26:34.772Z,98608.28
2022-11-05T18:29:00.880Z,98604.66
2022-11-05T18:31:26.995Z,98605.00
2022-11-05T18:33:53.083Z,98612.72
2022-11-05T18:36:19.179Z,98619.00
2022-11-05T18:38:45.282Z,98618.63
2022-11-05T18:41:11.363Z,98617.50
2022-11-05T18:43:37.445Z,98619.00
2022-11-05T18:46:04.075Z,98611.84
2022-11-05T18:48:30.176Z,98600.13
2022-11-05T18:51:00.733Z,98597.13
2022-11-05T18:53:28.027Z,98608.00
2022-11-05T18:55:54.113Z,98615.94
2022-11-05T18:58:20.195Z,98617.81
2022-11-05T19:00:46.295Z,98607.69
2022-11-05T19:03:12.389Z,98600.13
2022-11-05T19:05:38.476Z,98615.06
2022-11-05T19:08:04.600Z,98603.81
2022-11-05T19:10:30.689Z,98612.75
2022-11-05T19:12:56.792Z,98621.44
2022-11-05T19:15:22.904Z,98612.25
2022-11-05T19:17:49.016Z,98613.94
2022-11-05T19:20:15.114Z,98598.09
2022-11-05T19:22:41.222Z,98608.38
2022-11-05T19:25:07.313Z,98614.94
2022-11-05T19:27:33.418Z,98610.88
2022-11-05T19:29:59.515Z,98608.47
2022-11-05T19:32:25.609Z,98621.13
2022-11-05T19:34:51.705Z,98624.97
2022-11-05T19:37:17.833Z,98612.53
2022-11-05T19:39:43.952Z,98615.25
2022-11-05T19:42:10.033Z,98614.19
2022-11-05T19:44:36.161Z,98614.63
2022-11-05T19:47:02.257Z,98615.84
2022-11-05T19:49:28.353Z,98626.44
2022-11-05T19:51:54.568Z,98620.81
2022-11-05T19:54:20.656Z,98625.50
2022-11-05T19:56:46.747Z,98629.47
2022-11-05T19:59:12.905Z,98624.97
2022-11-05T20:01:39.118Z,98632.00
2022-11-05T20:04:05.331Z,98622.69
2022-11-05T20:06:31.473Z,98627.53
2022-11-05T20:09:20.657Z,98624.06
2022-11-05T20:11:43.694Z,98620.44
2022-11-05T20:14:09.796Z,98613.63
2022-11-05T20:16:35.884Z,98606.69
2022-11-05T20:19:02.002Z,98607.91
2022-11-05T20:21:28.095Z,98616.88
2022-11-05T20:23:54.207Z,98619.72
2022-11-05T20:26:20.303Z,98604.88
2022-11-05T20:28:46.416Z,98613.94
2022-11-05T20:31:12.514Z,98629.09
2022-11-05T20:33:38.630Z,98633.56
2022-11-05T20:36:04.717Z,98606.16
2022-11-05T20:38:30.809Z,98603.78
2022-11-05T20:40:56.922Z,98596.66
2022-11-05T20:43:27.590Z,98608.66
2022-11-05T20:45:56.336Z,98610.09
2022-11-05T20:48:22.550Z,98617.63
2022-11-05T20:50:48.631Z,98615.47
2022-11-05T20:53:14.732Z,98616.34
2022-11-05T20:55:40.851Z,98609.94
2022-11-05T20:58:06.961Z,98620.34
2022-11-05T21:00:33.059Z,98615.66
2022-11-05T21:02:59.517Z,98624.25
2022-11-05T21:05:26.605Z,98608.78
2022-11-05T21:07:55.014Z,98601.41
2022-11-05T21:10:21.123Z,98587.53
2022-11-05T21:12:47.242Z,98602.69
2022-11-05T21:15:13.328Z,98598.16
2022-11-05T21:17:39.437Z,98597.19
2022-11-05T21:20:05.582Z,98591.63
2022-11-05T21:22:31.687Z,98593.81
2022-11-05T21:24:57.799Z,98594.25
2022-11-05T21:27:23.915Z,98605.84
2022-11-05T21:29:50.014Z,98600.56
2022-11-05T21:32:16.137Z,98603.75
2022-11-05T21:34:42.235Z,98626.84
2022-11-05T21:37:08.362Z,98632.13
2022-11-05T21:39:34.470Z,98634.06
2022-11-05T21:42:00.561Z,98626.97
2022-11-05T21:44:26.643Z,98634.75
2022-11-05T21:46:52.754Z,98625.72
2022-11-05T21:49:18.835Z,98619.06
2022-11-05T21:51:44.928Z,98626.84
2022-11-05T21:54:11.049Z,98606.69
2022-11-05T21:56:37.138Z,98605.72
2022-11-05T21:59:03.247Z,98610.69
2022-11-05T22:01:29.764Z,98609.25
2022-11-05T22:04:00.386Z,98612.41
2022-11-05T22:06:28.852Z,98602.97
2022-11-05T22:08:54.964Z,98593.09
2022-11-05T22:11:21.065Z,98585.34
2022-11-05T22:13:47.152Z,98572.25
2022-11-05T22:16:13.266Z,98554.28
2022-11-05T22:18:39.366Z,98565.81
2022-11-05T22:21:05.451Z,98560.53
2022-11-05T22:23:31.558Z,98544.63
2022-11-05T22:25:57.664Z,98557.38
2022-11-05T22:28:23.753Z,98558.34
2022-11-05T22:30:49.875Z,98558.50
2022-11-05T22:33:15.969Z,98555.03
2022-11-05T22:35:42.049Z,98555.19
2022-11-05T22:38:08.176Z,98552.09
2022-11-05T22:40:34.272Z,98559.25
2022-11-05T22:43:00.366Z,98545.88
2022-11-05T22:45:26.473Z,98543.72
2022-11-05T22:47:52.564Z,98561.72
2022-11-05T22:50:18.650Z,98549.97
2022-11-05T22:52:44.751Z,98547.09
2022-11-05T22:55:10.836Z,98540.84
2022-11-05T22:57:36.946Z,98541.09
2022-11-05T23:00:03.539Z,98534.31
2022-11-05T23:02:29.745Z,98534.81
2022-11-05T23:04:55.900Z,98539.59
2022-11-05T23:07:27.026Z,98537.66
2022-11-05T23:09:53.839Z,98532.94
2022-11-05T23:12:19.936Z,98528.78
2022-11-05T23:14:46.039Z,98525.84
2022-11-05T23:17:12.132Z,98524.66
2022-11-05T23:19:38.233Z,98527.72
2022-11-05T23:22:04.348Z,98526.75
2022-11-05T23:24:30.445Z,98521.63
2022-11-05T23:26:56.576Z,98519.13
2022-11-05T23:29:22.704Z,98520.94
2022-11-05T23:31:48.788Z,98536.91
2022-11-05T23:34:14.870Z,98528.31
2022-11-05T23:36:40.997Z,98526.81
2022-11-05T23:39:07.088Z,98523.50
2022-11-05T23:41:33.188Z,98525.31
2022-11-05T23:43:59.308Z,98526.94
2022-11-05T23:46:25.404Z,98522.53
2022-11-05T23:48:51.491Z,98523.09
2022-11-05T23:51:17.599Z,98534.78
2022-11-05T23:53:43.697Z,98522.03
2022-11-05T23:56:09.799Z,98524.84
2022-11-05T23:58:35.910Z,98526.56
